Time,TemperatureF,DewpointF,PressureIn,WindDirection,WindDirectionDegrees,WindSpeedMPH,WindSpeedGustMPH,Humidity,HourlyPrecipIn,Conditions,Clouds,dailyrainin,SoftwareType,DateUTC
2013-04-08 00:02:00,53.8,48.4,29.91,WNW,302,9.0,20.0,82,0.01,,,0.05,meteohub,2013-04-08 07:02:00,
2013-04-08 00:12:00,52.2,46.2,29.91,WNW,296,8.0,26.0,80,0.01,,,0.05,meteohub,2013-04-08 07:12:00,
2013-04-08 00:17:00,52.0,46.4,29.91,NW,306,8.0,26.0,81,0.01,,,0.05,meteohub,2013-04-08 07:17:00,
2013-04-08 00:22:00,51.8,46.2,29.91,WSW,249,14.0,19.0,81,0.00,,,0.05,meteohub,2013-04-08 07:22:00,
2013-04-08 00:32:00,51.3,45.0,29.91,SW,236,4.0,19.0,79,0.00,,,0.05,meteohub,2013-04-08 07:32:00,
2013-04-08 00:37:00,51.3,45.0,29.91,NW,313,10.0,19.0,79,0.00,,,0.05,meteohub,2013-04-08 07:37:00,
2013-04-08 00:47:00,51.1,44.4,29.91,NW,311,10.0,21.0,78,0.00,,,0.05,meteohub,2013-04-08 07:47:00,
2013-04-08 00:52:00,50.9,43.9,29.91,NE,39,13.0,21.0,77,0.00,,,0.05,meteohub,2013-04-08 07:52:00,
2013-04-08 00:57:00,51.1,44.4,29.91,East,99,8.0,21.0,78,0.00,,,0.05,meteohub,2013-04-08 07:57:00,
2013-04-08 01:02:00,50.9,43.9,29.91,WNW,292,9.0,18.0,77,0.00,,,0.05,meteohub,2013-04-08 08:02:00,
2013-04-08 01:07:00,50.7,43.7,29.91,West,261,11.0,18.0,77,0.00,,,0.05,meteohub,2013-04-08 08:07:00,
2013-04-08 01:12:00,50.7,43.7,29.91,NW,314,19.0,24.0,77,0.00,,,0.05,meteohub,2013-04-08 08:12:00,
2013-04-08 01:17:00,50.7,43.5,29.91,North,0,15.0,24.0,76,0.00,,,0.05,meteohub,2013-04-08 08:17:00,
2013-04-08 01:22:00,50.5,43.5,29.91,WNW,290,4.0,25.0,77,0.00,,,0.05,meteohub,2013-04-08 08:22:00,
2013-04-08 01:27:00,50.7,43.7,29.91,NW,326,7.0,25.0,77,0.00,,,0.05,meteohub,2013-04-08 08:27:00,
2013-04-08 01:37:00,50.5,43.3,29.89,WNW,299,9.0,18.0,76,0.00,,,0.05,meteohub,2013-04-08 08:37:00,
2013-04-08 01:42:00,50.5,43.3,29.89,WNW,284,15.0,18.0,76,0.00,,,0.05,meteohub,2013-04-08 08:42:00,
2013-04-08 01:52:00,50.4,42.8,29.88,WNW,286,4.0,26.0,75,0.00,,,0.05,meteohub,2013-04-08 08:52:00,
2013-04-08 01:57:00,50.2,42.6,29.88,NW,317,9.0,26.0,75,0.00,,,0.05,meteohub,2013-04-08 08:57:00,
2013-04-08 02:02:00,50.2,42.6,29.88,WNW,290,15.0,22.0,75,0.00,,,0.05,meteohub,2013-04-08 09:02:00,
2013-04-08 02:07:00,50.0,42.4,29.88,WNW,298,6.0,20.0,75,0.00,,,0.05,meteohub,2013-04-08 09:07:00,
2013-04-08 02:17:00,50.0,42.4,29.88,East,79,10.0,18.0,75,0.00,,,0.05,meteohub,2013-04-08 09:17:00,
2013-04-08 02:22:00,50.0,42.4,29.88,ENE,59,5.0,18.0,75,0.00,,,0.05,meteohub,2013-04-08 09:22:00,
2013-04-08 02:32:00,50.0,42.4,29.87,North,355,7.0,17.0,75,0.00,,,0.05,meteohub,2013-04-08 09:32:00,
2013-04-08 02:37:00,50.0,42.1,29.87,NNW,329,4.0,17.0,74,0.00,,,0.05,meteohub,2013-04-08 09:37:00,
2013-04-08 02:42:00,49.8,41.9,29.87,NE,36,11.0,14.0,74,0.00,,,0.05,meteohub,2013-04-08 09:42:00,
2013-04-08 02:47:00,49.8,42.3,29.88,West,259,3.0,17.0,75,0.00,,,0.05,meteohub,2013-04-08 09:47:00,
2013-04-08 02:57:00,49.8,42.3,29.88,NW,313,4.0,13.0,75,0.00,,,0.05,meteohub,2013-04-08 09:57:00,
2013-04-08 03:07:00,50.0,42.1,29.88,NW,311,11.0,11.0,74,0.00,,,0.05,meteohub,2013-04-08 10:07:00,
2013-04-08 03:17:00,50.2,42.3,29.87,WNW,293,10.0,12.0,74,0.00,,,0.05,meteohub,2013-04-08 10:17:00,
2013-04-08 03:22:00,50.2,42.3,29.87,WNW,296,5.0,12.0,74,0.00,,,0.05,meteohub,2013-04-08 10:22:00,
2013-04-08 03:27:00,50.0,41.7,29.88,NNW,347,7.0,12.0,73,0.00,,,0.05,meteohub,2013-04-08 10:27:00,
2013-04-08 03:37:00,49.8,41.5,29.87,NNW,347,4.0,9.0,73,0.00,,,0.05,meteohub,2013-04-08 10:37:00,
2013-04-08 03:47:00,49.6,41.4,29.88,West,259,4.0,9.0,73,0.00,,,0.05,meteohub,2013-04-08 10:47:00,
2013-04-08 03:57:00,49.8,41.2,29.90,ENE,62,1.0,11.0,72,0.00,,,0.05,meteohub,2013-04-08 10:57:00,
2013-04-08 04:02:00,49.8,40.8,29.90,NNE,24,3.0,11.0,71,0.00,,,0.05,meteohub,2013-04-08 11:02:00,
2013-04-08 04:07:00,49.8,40.8,29.91,NNW,331,2.0,11.0,71,0.00,,,0.05,meteohub,2013-04-08 11:07:00,
2013-04-08 04:12:00,50.0,41.0,29.91,WNW,295,3.0,9.0,71,0.00,,,0.05,meteohub,2013-04-08 11:12:00,
2013-04-08 04:17:00,50.2,40.8,29.91,SW,226,2.0,7.0,70,0.00,,,0.05,meteohub,2013-04-08 11:17:00,
2013-04-08 04:27:00,50.2,40.5,29.91,NE,54,2.0,9.0,69,0.00,,,0.05,meteohub,2013-04-08 11:27:00,
2013-04-08 04:37:00,50.2,40.1,29.91,NW,304,2.0,19.0,68,0.00,,,0.05,meteohub,2013-04-08 11:37:00,
2013-04-08 04:47:00,50.2,40.1,29.92,NNE,15,2.0,11.0,68,0.00,,,0.05,meteohub,2013-04-08 11:47:00,
2013-04-08 04:52:00,50.2,40.1,29.92,NE,52,2.0,6.0,68,0.00,,,0.05,meteohub,2013-04-08 11:52:00,
2013-04-08 04:57:00,50.0,39.9,29.92,West,264,1.0,8.0,68,0.00,,,0.05,meteohub,2013-04-08 11:57:00,
2013-04-08 05:02:00,50.0,39.6,29.92,East,98,1.0,8.0,67,0.00,,,0.05,meteohub,2013-04-08 12:02:00,
2013-04-08 05:12:00,50.2,39.2,29.92,West,264,5.0,9.0,66,0.00,,,0.05,meteohub,2013-04-08 12:12:00,
2013-04-08 05:17:00,50.2,38.8,29.92,NE,52,1.0,9.0,65,0.00,,,0.05,meteohub,2013-04-08 12:17:00,
2013-04-08 05:27:00,50.2,38.8,29.92,ENE,77,3.0,12.0,65,0.00,,,0.05,meteohub,2013-04-08 12:27:00,
2013-04-08 05:32:00,50.2,38.8,29.92,NNE,22,4.0,7.0,65,0.00,,,0.05,meteohub,2013-04-08 12:32:00,
2013-04-08 05:37:00,50.2,38.5,29.92,West,264,2.0,9.0,64,0.00,,,0.05,meteohub,2013-04-08 12:37:00,
2013-04-08 05:42:00,50.2,38.8,29.93,NE,43,8.0,9.0,65,0.00,,,0.05,meteohub,2013-04-08 12:42:00,
2013-04-08 05:47:00,50.2,38.5,29.92,WNW,298,9.0,10.0,64,0.00,,,0.05,meteohub,2013-04-08 12:47:00,
2013-04-08 05:52:00,50.2,38.1,29.92,WNW,295,2.0,13.0,63,0.00,,,0.05,meteohub,2013-04-08 12:52:00,
2013-04-08 05:57:00,50.2,38.1,29.92,ENE,61,3.0,13.0,63,0.00,,,0.05,meteohub,2013-04-08 12:57:00,
2013-04-08 06:07:00,50.0,37.6,29.93,West,269,4.0,11.0,62,0.00,,,0.05,meteohub,2013-04-08 13:07:00,
2013-04-08 06:12:00,50.0,37.6,29.93,NW,322,6.0,11.0,62,0.00,,,0.05,meteohub,2013-04-08 13:12:00,
2013-04-08 06:17:00,50.2,37.2,29.93,West,277,1.0,15.0,61,0.00,,,0.05,meteohub,2013-04-08 13:17:00,
2013-04-08 06:22:00,50.2,37.2,29.94,West,278,1.0,15.0,61,0.00,,,0.05,meteohub,2013-04-08 13:22:00,
2013-04-08 06:27:00,50.2,37.2,29.93,NW,311,3.0,15.0,61,0.00,,,0.05,meteohub,2013-04-08 13:27:00,
2013-04-08 06:37:00,50.2,37.2,29.94,WNW,285,2.0,10.0,61,0.00,,,0.05,meteohub,2013-04-08 13:37:00,
2013-04-08 06:42:00,50.0,37.6,29.94,East,94,2.0,9.0,62,0.00,,,0.05,meteohub,2013-04-08 13:42:00,
2013-04-08 06:47:00,50.0,37.0,29.94,ENE,69,1.0,12.0,61,0.00,,,0.05,meteohub,2013-04-08 13:47:00,
2013-04-08 06:52:00,50.0,37.0,29.95,WNW,290,4.0,14.0,61,0.00,,,0.05,meteohub,2013-04-08 13:52:00,
2013-04-08 06:57:00,50.0,37.0,29.96,WNW,295,9.0,14.0,61,0.00,,,0.05,meteohub,2013-04-08 13:57:00,
2013-04-08 07:02:00,49.8,36.9,29.95,ESE,113,1.0,18.0,61,0.00,,,0.05,meteohub,2013-04-08 14:02:00,
2013-04-08 07:12:00,49.8,36.9,29.96,ESE,104,1.0,18.0,61,0.00,,,0.05,meteohub,2013-04-08 14:12:00,
2013-04-08 07:17:00,50.0,37.6,29.96,NW,304,1.0,10.0,62,0.00,,,0.05,meteohub,2013-04-08 14:17:00,
2013-04-08 07:22:00,50.0,37.6,29.97,SSE,168,2.0,10.0,62,0.00,,,0.05,meteohub,2013-04-08 14:22:00,
2013-04-08 07:27:00,50.2,37.2,29.97,WNW,290,4.0,8.0,61,0.00,,,0.05,meteohub,2013-04-08 14:27:00,
2013-04-08 07:32:00,50.2,37.2,29.96,NE,44,2.0,8.0,61,0.00,,,0.05,meteohub,2013-04-08 14:32:00,
2013-04-08 07:42:00,50.4,37.4,29.97,NE,45,4.0,8.0,61,0.00,,,0.05,meteohub,2013-04-08 14:42:00,
2013-04-08 07:47:00,50.5,36.7,29.97,NE,42,4.0,7.0,59,0.00,,,0.05,meteohub,2013-04-08 14:47:00,
2013-04-08 07:52:00,50.5,36.3,29.97,ENE,67,4.0,8.0,58,0.00,,,0.05,meteohub,2013-04-08 14:52:00,
2013-04-08 07:57:00,50.9,35.8,29.98,NNW,338,4.0,8.0,56,0.00,,,0.05,meteohub,2013-04-08 14:57:00,
2013-04-08 08:02:00,51.1,36.0,29.98,NW,318,8.0,13.0,56,0.00,,,0.05,meteohub,2013-04-08 15:02:00,
2013-04-08 08:07:00,51.3,36.1,29.98,NNE,15,4.0,13.0,56,0.00,,,0.05,meteohub,2013-04-08 15:07:00,
2013-04-08 08:17:00,51.4,36.7,29.99,NW,311,2.0,12.0,57,0.00,,,0.05,meteohub,2013-04-08 15:17:00,
2013-04-08 08:22:00,51.6,36.5,29.98,WNW,288,1.0,9.0,56,0.00,,,0.05,meteohub,2013-04-08 15:22:00,
2013-04-08 08:27:00,52.0,36.9,29.98,NNE,27,5.0,9.0,56,0.00,,,0.05,meteohub,2013-04-08 15:27:00,
2013-04-08 08:32:00,52.0,36.3,29.98,NE,45,3.0,9.0,55,0.00,,,0.05,meteohub,2013-04-08 15:32:00,
2013-04-08 08:42:00,52.3,36.1,29.97,WNW,303,9.0,12.0,54,0.00,,,0.05,meteohub,2013-04-08 15:42:00,
2013-04-08 08:47:00,52.5,36.3,29.98,North,355,5.0,12.0,54,0.00,,,0.05,meteohub,2013-04-08 15:47:00,
2013-04-08 08:52:00,52.9,36.7,29.98,WNW,302,11.0,12.0,54,0.00,,,0.05,meteohub,2013-04-08 15:52:00,
2013-04-08 08:57:00,52.9,36.1,29.98,ENE,57,5.0,13.0,53,0.00,,,0.05,meteohub,2013-04-08 15:57:00,
2013-04-08 09:02:00,53.1,36.3,29.98,NNE,13,3.0,13.0,53,0.00,,,0.05,meteohub,2013-04-08 16:02:00,
2013-04-08 09:12:00,53.4,36.7,29.98,ENE,57,10.0,14.0,53,0.00,,,0.05,meteohub,2013-04-08 16:12:00,
2013-04-08 09:17:00,53.2,36.5,29.99,NNW,327,4.0,14.0,53,0.00,,,0.05,meteohub,2013-04-08 16:17:00,
2013-04-08 09:22:00,53.4,36.7,29.98,NNW,340,6.0,14.0,53,0.00,,,0.05,meteohub,2013-04-08 16:22:00,
2013-04-08 09:32:00,53.4,36.7,29.99,NE,44,2.0,18.0,53,0.00,,,0.05,meteohub,2013-04-08 16:32:00,
2013-04-08 09:37:00,53.8,37.0,29.98,WNW,300,4.0,18.0,53,0.00,,,0.05,meteohub,2013-04-08 16:37:00,
2013-04-08 09:47:00,54.0,36.3,29.98,NNW,331,5.0,17.0,51,0.00,,,0.05,meteohub,2013-04-08 16:47:00,
2013-04-08 09:57:00,55.0,36.1,29.98,ENE,57,2.0,20.0,49,0.00,,,0.05,meteohub,2013-04-08 16:57:00,
2013-04-08 10:07:00,55.4,36.0,29.98,WNW,283,3.0,15.0,48,0.00,,,0.05,meteohub,2013-04-08 17:07:00,
2013-04-08 10:12:00,55.8,35.8,29.98,West,277,4.0,15.0,47,0.00,,,0.05,meteohub,2013-04-08 17:12:00,
2013-04-08 10:17:00,56.1,35.6,29.98,NE,42,5.0,14.0,46,0.00,,,0.05,meteohub,2013-04-08 17:17:00,
2013-04-08 10:22:00,56.1,36.1,29.98,NNE,24,7.0,14.0,47,0.00,,,0.05,meteohub,2013-04-08 17:22:00,
2013-04-08 10:27:00,56.5,36.0,29.99,West,276,4.0,14.0,46,0.00,,,0.05,meteohub,2013-04-08 17:27:00,
2013-04-08 10:37:00,57.0,36.0,29.99,West,280,3.0,15.0,45,0.00,,,0.05,meteohub,2013-04-08 17:37:00,
2013-04-08 10:42:00,57.6,35.8,29.99,SSW,213,7.0,15.0,44,0.00,,,0.05,meteohub,2013-04-08 17:42:00,
2013-04-08 10:47:00,57.9,34.9,29.98,WNW,300,1.0,11.0,42,0.00,,,0.05,meteohub,2013-04-08 17:47:00,
2013-04-08 10:52:00,58.5,35.4,29.99,NE,44,2.0,9.0,42,0.00,,,0.05,meteohub,2013-04-08 17:52:00,
2013-04-08 10:57:00,59.4,34.3,29.98,SSW,203,2.0,14.0,39,0.00,,,0.05,meteohub,2013-04-08 17:57:00,
2013-04-08 11:02:00,59.5,34.5,29.99,West,280,1.0,14.0,39,0.00,,,0.05,meteohub,2013-04-08 18:02:00,
2013-04-08 11:07:00,59.7,33.4,29.99,NNE,22,1.0,8.0,37,0.00,,,0.05,meteohub,2013-04-08 18:07:00,
2013-04-08 11:12:00,59.5,34.0,29.99,WNW,286,2.0,15.0,38,0.00,,,0.05,meteohub,2013-04-08 18:12:00,
2013-04-08 11:17:00,59.7,33.4,30.00,West,280,2.0,15.0,37,0.00,,,0.05,meteohub,2013-04-08 18:17:00,
2013-04-08 11:27:00,60.6,34.2,29.99,NNW,333,3.0,10.0,37,0.00,,,0.05,meteohub,2013-04-08 18:27:00,
2013-04-08 11:32:00,61.0,35.2,30.00,West,277,3.0,8.0,38,0.00,,,0.05,meteohub,2013-04-08 18:32:00,
2013-04-08 11:37:00,61.0,33.8,30.00,WNW,296,2.0,9.0,36,0.00,,,0.05,meteohub,2013-04-08 18:37:00,
2013-04-08 11:42:00,61.0,33.1,30.00,NW,306,6.0,9.0,35,0.00,,,0.05,meteohub,2013-04-08 18:42:00,
2013-04-08 11:52:00,61.5,35.6,30.00,West,264,14.0,14.0,38,0.00,,,0.05,meteohub,2013-04-08 18:52:00,
2013-04-08 11:57:00,61.3,33.4,29.99,West,273,1.0,14.0,35,0.00,,,0.05,meteohub,2013-04-08 18:57:00,
2013-04-08 12:02:00,61.9,34.7,30.00,NW,324,4.0,14.0,36,0.00,,,0.05,meteohub,2013-04-08 19:02:00,
2013-04-08 12:12:00,61.5,32.9,30.00,NW,318,7.0,14.0,34,0.00,,,0.05,meteohub,2013-04-08 19:12:00,
2013-04-08 12:22:00,61.9,34.0,30.00,NW,308,7.0,14.0,35,0.00,,,0.05,meteohub,2013-04-08 19:22:00,
2013-04-08 12:27:00,61.7,33.8,29.99,NE,36,3.0,12.0,35,0.00,,,0.05,meteohub,2013-04-08 19:27:00,
2013-04-08 12:32:00,62.1,35.4,30.00,NNW,327,4.0,12.0,37,0.00,,,0.05,meteohub,2013-04-08 19:32:00,
2013-04-08 12:42:00,62.8,36.1,29.99,NW,306,4.0,10.0,37,0.00,,,0.05,meteohub,2013-04-08 19:42:00,
2013-04-08 12:47:00,63.3,39.9,29.99,West,279,3.0,10.0,42,0.00,,,0.05,meteohub,2013-04-08 19:47:00,
2013-04-08 12:52:00,63.1,37.0,29.99,NE,49,4.0,13.0,38,0.00,,,0.05,meteohub,2013-04-08 19:52:00,
2013-04-08 12:57:00,62.6,36.0,29.99,ENE,78,7.0,13.0,37,0.00,,,0.05,meteohub,2013-04-08 19:57:00,
2013-04-08 13:02:00,62.6,36.0,29.99,ENE,63,5.0,13.0,37,0.00,,,0.05,meteohub,2013-04-08 20:02:00,
2013-04-08 13:07:00,62.6,36.7,30.00,ENE,71,4.0,14.0,38,0.00,,,0.05,meteohub,2013-04-08 20:07:00,
2013-04-08 13:12:00,63.1,38.5,29.99,WNW,299,2.0,14.0,40,0.00,,,0.05,meteohub,2013-04-08 20:12:00,
2013-04-08 13:17:00,63.3,39.9,29.99,NNE,32,5.0,14.0,42,0.00,,,0.05,meteohub,2013-04-08 20:17:00,
2013-04-08 13:22:00,63.3,41.5,29.99,ENE,58,2.0,11.0,45,0.00,,,0.05,meteohub,2013-04-08 20:22:00,
2013-04-08 13:27:00,63.9,41.0,29.99,NW,313,3.0,11.0,43,0.00,,,0.05,meteohub,2013-04-08 20:27:00,
2013-04-08 13:32:00,63.5,38.7,29.99,East,98,5.0,16.0,40,0.00,,,0.05,meteohub,2013-04-08 20:32:00,
2013-04-08 13:42:00,63.7,38.3,29.99,West,274,3.0,16.0,39,0.00,,,0.05,meteohub,2013-04-08 20:42:00,
2013-04-08 13:47:00,63.9,39.0,29.98,WSW,241,8.0,15.0,40,0.00,,,0.05,meteohub,2013-04-08 20:47:00,
2013-04-08 13:57:00,65.1,40.8,29.98,North,5,4.0,12.0,41,0.00,,,0.05,meteohub,2013-04-08 20:57:00,
2013-04-08 14:02:00,65.8,41.5,29.98,WNW,299,3.0,12.0,41,0.00,,,0.05,meteohub,2013-04-08 21:02:00,
2013-04-08 14:07:00,65.8,38.8,29.98,WNW,299,5.0,9.0,37,0.00,,,0.05,meteohub,2013-04-08 21:07:00,
2013-04-08 14:17:00,66.0,39.0,29.98,WNW,299,6.0,13.0,37,0.00,,,0.05,meteohub,2013-04-08 21:17:00,
2013-04-08 14:22:00,66.4,37.9,29.97,NW,321,4.0,13.0,35,0.00,,,0.05,meteohub,2013-04-08 21:22:00,
2013-04-08 14:27:00,66.4,42.6,29.97,WNW,299,6.0,12.0,42,0.00,,,0.05,meteohub,2013-04-08 21:27:00,
2013-04-08 14:37:00,64.4,45.3,29.97,West,266,7.0,12.0,50,0.00,,,0.05,meteohub,2013-04-08 21:37:00,
2013-04-08 14:47:00,64.0,46.0,29.97,SW,223,5.0,11.0,52,0.00,,,0.05,meteohub,2013-04-08 21:47:00,
2013-04-08 14:52:00,64.6,46.0,29.97,West,281,4.0,10.0,51,0.00,,,0.05,meteohub,2013-04-08 21:52:00,
2013-04-08 15:02:00,64.8,46.2,29.97,West,280,2.0,10.0,51,0.00,,,0.05,meteohub,2013-04-08 22:02:00,
2013-04-08 15:07:00,64.4,45.9,29.97,NNE,29,3.0,10.0,51,0.00,,,0.05,meteohub,2013-04-08 22:07:00,
2013-04-08 15:12:00,64.6,46.0,29.97,WNW,291,3.0,12.0,51,0.00,,,0.05,meteohub,2013-04-08 22:12:00,
2013-04-08 15:17:00,64.6,45.5,29.97,NW,304,7.0,12.0,50,0.00,,,0.05,meteohub,2013-04-08 22:17:00,
2013-04-08 15:22:00,64.2,45.1,29.97,NW,307,10.0,10.0,50,0.00,,,0.05,meteohub,2013-04-08 22:22:00,
2013-04-08 15:27:00,63.9,45.9,29.96,NW,313,4.0,12.0,52,0.00,,,0.05,meteohub,2013-04-08 22:27:00,
2013-04-08 15:32:00,64.0,45.5,29.97,WSW,253,7.0,13.0,51,0.00,,,0.05,meteohub,2013-04-08 22:32:00,
2013-04-08 15:37:00,64.0,46.0,29.96,NW,313,7.0,13.0,52,0.00,,,0.05,meteohub,2013-04-08 22:37:00,
2013-04-08 15:42:00,64.2,45.7,29.96,WSW,256,8.0,12.0,51,0.00,,,0.05,meteohub,2013-04-08 22:42:00,
2013-04-08 15:47:00,64.4,45.3,29.96,WNW,288,4.0,12.0,50,0.00,,,0.05,meteohub,2013-04-08 22:47:00,
2013-04-08 15:57:00,64.0,45.0,29.96,West,277,3.0,11.0,50,0.00,,,0.05,meteohub,2013-04-08 22:57:00,
2013-04-08 16:02:00,64.4,45.3,29.96,West,281,5.0,11.0,50,0.00,,,0.05,meteohub,2013-04-08 23:02:00,
2013-04-08 16:12:00,63.7,46.2,29.96,WNW,292,4.0,16.0,53,0.00,,,0.05,meteohub,2013-04-08 23:12:00,
2013-04-08 16:17:00,63.9,45.9,29.96,North,351,2.0,16.0,52,0.00,,,0.05,meteohub,2013-04-08 23:17:00,
2013-04-08 16:22:00,63.7,45.1,29.96,NW,311,4.0,14.0,51,0.00,,,0.05,meteohub,2013-04-08 23:22:00,
2013-04-08 16:27:00,63.7,45.7,29.97,West,274,4.0,14.0,52,0.00,,,0.05,meteohub,2013-04-08 23:27:00,
2013-04-08 16:37:00,63.7,44.8,29.96,West,281,1.0,14.0,50,0.00,,,0.05,meteohub,2013-04-08 23:37:00,
2013-04-08 16:42:00,64.6,45.5,29.97,SW,215,10.0,16.0,50,0.00,,,0.05,meteohub,2013-04-08 23:42:00,
2013-04-08 16:52:00,63.7,46.2,29.96,East,86,7.0,15.0,53,0.00,,,0.05,meteohub,2013-04-08 23:52:00,
2013-04-08 16:57:00,63.3,46.4,29.96,SW,227,4.0,15.0,54,0.00,,,0.05,meteohub,2013-04-08 23:57:00,
2013-04-08 17:02:00,63.1,46.8,29.96,WNW,292,6.0,13.0,55,0.00,,,0.05,meteohub,2013-04-09 00:02:00,
2013-04-08 17:12:00,62.8,46.4,29.97,NNE,17,4.0,13.0,55,0.00,,,0.00,meteohub,2013-04-09 00:12:00,
2013-04-08 17:17:00,63.0,46.0,29.97,NW,306,12.0,13.0,54,0.00,,,0.00,meteohub,2013-04-09 00:17:00,
2013-04-08 17:22:00,62.6,45.7,29.97,WSW,248,8.0,13.0,54,0.00,,,0.00,meteohub,2013-04-09 00:22:00,
2013-04-08 17:27:00,62.4,46.0,29.97,NW,318,4.0,13.0,55,0.00,,,0.00,meteohub,2013-04-09 00:27:00,
2013-04-08 17:32:00,62.4,46.0,29.97,NW,315,5.0,13.0,55,0.00,,,0.00,meteohub,2013-04-09 00:32:00,
2013-04-08 17:42:00,62.4,46.6,29.98,West,261,7.0,13.0,56,0.00,,,0.00,meteohub,2013-04-09 00:42:00,
2013-04-08 17:47:00,62.2,45.9,29.97,West,269,7.0,12.0,55,0.00,,,0.00,meteohub,2013-04-09 00:47:00,
2013-04-08 17:57:00,61.9,45.5,29.97,NW,313,4.0,11.0,55,0.00,,,0.00,meteohub,2013-04-09 00:57:00,
2013-04-08 18:07:00,61.3,45.0,29.97,WNW,294,4.0,14.0,55,0.00,,,0.00,meteohub,2013-04-09 01:07:00,
2013-04-08 18:12:00,61.3,45.0,29.97,WNW,292,4.0,14.0,55,0.00,,,0.00,meteohub,2013-04-09 01:12:00,
2013-04-08 18:17:00,61.3,45.0,29.97,WSW,250,5.0,13.0,55,0.00,,,0.00,meteohub,2013-04-09 01:17:00,
2013-04-08 18:22:00,61.0,45.1,29.97,NW,309,7.0,15.0,56,0.00,,,0.00,meteohub,2013-04-09 01:22:00,
2013-04-08 18:27:00,60.6,45.3,29.98,WSW,249,10.0,15.0,57,0.00,,,0.00,meteohub,2013-04-09 01:27:00,
2013-04-08 18:37:00,59.5,45.7,29.98,NW,310,13.0,15.0,60,0.00,,,0.00,meteohub,2013-04-09 01:37:00,
2013-04-08 18:47:00,59.0,45.5,29.98,NW,304,3.0,14.0,61,0.00,,,0.00,meteohub,2013-04-09 01:47:00,
2013-04-08 18:52:00,58.6,45.7,29.98,WNW,299,7.0,14.0,62,0.00,,,0.00,meteohub,2013-04-09 01:52:00,
2013-04-08 19:02:00,58.3,45.7,29.99,WNW,295,11.0,14.0,63,0.00,,,0.00,meteohub,2013-04-09 02:02:00,
2013-04-08 19:07:00,58.3,45.7,29.99,NNW,328,4.0,13.0,63,0.00,,,0.00,meteohub,2013-04-09 02:07:00,
2013-04-08 19:17:00,58.3,45.7,29.99,WNW,283,4.0,13.0,63,0.00,,,0.00,meteohub,2013-04-09 02:17:00,
2013-04-08 19:27:00,57.9,45.0,29.99,West,271,6.0,10.0,62,0.00,,,0.00,meteohub,2013-04-09 02:27:00,
2013-04-08 19:32:00,57.7,44.8,29.99,WNW,288,2.0,10.0,62,0.00,,,0.00,meteohub,2013-04-09 02:32:00,
2013-04-08 19:37:00,57.7,44.8,29.99,West,268,0.0,10.0,62,0.00,,,0.00,meteohub,2013-04-09 02:37:00,
2013-04-08 19:42:00,57.6,44.6,29.99,WNW,287,4.0,10.0,62,0.00,,,0.00,meteohub,2013-04-09 02:42:00,
2013-04-08 19:47:00,57.4,45.0,30.00,WNW,290,5.0,6.0,63,0.00,,,0.00,meteohub,2013-04-09 02:47:00,
2013-04-08 19:52:00,57.2,45.1,30.00,WNW,290,4.0,9.0,64,0.00,,,0.00,meteohub,2013-04-09 02:52:00,
2013-04-08 19:57:00,57.2,45.1,30.01,WSW,250,1.0,9.0,64,0.00,,,0.00,meteohub,2013-04-09 02:57:00,
2013-04-08 20:07:00,56.8,44.8,30.01,NW,319,3.0,5.0,64,0.00,,,0.00,meteohub,2013-04-09 03:07:00,
2013-04-08 20:12:00,56.8,45.1,30.01,SSW,196,1.0,6.0,65,0.00,,,0.00,meteohub,2013-04-09 03:12:00,
2013-04-08 20:17:00,56.8,45.1,30.01,WNW,291,3.0,6.0,65,0.00,,,0.00,meteohub,2013-04-09 03:17:00,
2013-04-08 20:22:00,56.7,45.0,30.01,West,264,2.0,6.0,65,0.00,,,0.00,meteohub,2013-04-09 03:22:00,
2013-04-08 20:27:00,56.7,45.0,30.01,WSW,244,2.0,5.0,65,0.00,,,0.00,meteohub,2013-04-09 03:27:00,
2013-04-08 20:32:00,56.7,45.5,30.02,WSW,258,0.0,5.0,66,0.00,,,0.00,meteohub,2013-04-09 03:32:00,
2013-04-08 20:42:00,56.1,45.3,30.02,WSW,241,1.0,4.0,67,0.00,,,0.00,meteohub,2013-04-09 03:42:00,
2013-04-08 20:47:00,55.9,45.1,30.02,WSW,246,2.0,4.0,67,0.00,,,0.00,meteohub,2013-04-09 03:47:00,
2013-04-08 20:52:00,56.3,43.5,30.02,East,82,2.0,3.0,62,0.00,,,0.00,meteohub,2013-04-09 03:52:00,
2013-04-08 20:57:00,57.6,43.0,30.02,ENE,64,0.0,4.0,58,0.00,,,0.00,meteohub,2013-04-09 03:57:00,
2013-04-08 21:02:00,58.1,42.4,30.02,ENE,60,1.0,5.0,56,0.00,,,0.00,meteohub,2013-04-09 04:02:00,
2013-04-08 21:07:00,58.3,42.6,30.03,SW,226,0.0,5.0,56,0.00,,,0.00,meteohub,2013-04-09 04:07:00,
2013-04-08 21:12:00,57.9,43.2,30.03,SSE,163,2.0,4.0,58,0.00,,,0.00,meteohub,2013-04-09 04:12:00,
2013-04-08 21:17:00,57.6,43.7,30.03,SSE,159,1.0,4.0,60,0.00,,,0.00,meteohub,2013-04-09 04:17:00,
2013-04-08 21:22:00,57.2,44.2,30.04,East,90,2.0,4.0,62,0.00,,,0.00,meteohub,2013-04-09 04:22:00,
2013-04-08 21:27:00,57.0,44.1,30.04,SSW,206,0.0,3.0,62,0.00,,,0.00,meteohub,2013-04-09 04:27:00,
2013-04-08 21:37:00,57.4,43.7,30.04,NE,38,1.0,4.0,60,0.00,,,0.00,meteohub,2013-04-09 04:37:00,
2013-04-08 21:42:00,57.7,42.6,30.04,NNE,20,3.0,5.0,57,0.00,,,0.00,meteohub,2013-04-09 04:42:00,
2013-04-08 21:47:00,57.9,42.8,30.05,ESE,107,0.0,8.0,57,0.00,,,0.00,meteohub,2013-04-09 04:47:00,
2013-04-08 21:52:00,57.9,42.3,30.05,WNW,299,1.0,8.0,56,0.00,,,0.00,meteohub,2013-04-09 04:52:00,
2013-04-08 22:02:00,58.1,42.1,30.05,ENE,78,3.0,8.0,55,0.00,,,0.00,meteohub,2013-04-09 05:02:00,
2013-04-08 22:07:00,58.1,42.1,30.05,WNW,286,1.0,10.0,55,0.00,,,0.00,meteohub,2013-04-09 05:07:00,
2013-04-08 22:12:00,58.1,42.1,30.05,WNW,295,6.0,10.0,55,0.00,,,0.00,meteohub,2013-04-09 05:12:00,
2013-04-08 22:22:00,57.6,41.9,30.05,NW,322,1.0,11.0,56,0.00,,,0.00,meteohub,2013-04-09 05:22:00,
2013-04-08 22:27:00,57.6,42.4,30.05,East,79,0.0,11.0,57,0.00,,,0.00,meteohub,2013-04-09 05:27:00,
2013-04-08 22:37:00,57.2,42.6,30.05,East,88,1.0,8.0,58,0.00,,,0.00,meteohub,2013-04-09 05:37:00,
2013-04-08 22:42:00,57.0,42.8,30.06,ENE,69,1.0,8.0,59,0.00,,,0.00,meteohub,2013-04-09 05:42:00,
2013-04-08 22:52:00,57.0,42.8,30.06,West,280,1.0,4.0,59,0.00,,,0.00,meteohub,2013-04-09 05:52:00,
2013-04-08 22:57:00,57.0,42.8,30.06,West,276,2.0,4.0,59,0.00,,,0.00,meteohub,2013-04-09 05:57:00,
2013-04-08 23:07:00,57.6,43.0,30.06,NW,319,5.0,5.0,58,0.00,,,0.00,meteohub,2013-04-09 06:07:00,
2013-04-08 23:12:00,57.6,42.4,30.06,NW,319,2.0,6.0,57,0.00,,,0.00,meteohub,2013-04-09 06:12:00,
2013-04-08 23:17:00,57.6,43.0,30.06,WNW,283,3.0,6.0,58,0.00,,,0.00,meteohub,2013-04-09 06:17:00,
2013-04-08 23:22:00,57.4,43.2,30.06,NW,315,2.0,6.0,59,0.00,,,0.00,meteohub,2013-04-09 06:22:00,
2013-04-08 23:27:00,57.4,43.2,30.06,WNW,285,3.0,4.0,59,0.00,,,0.00,meteohub,2013-04-09 06:27:00,
2013-04-08 23:32:00,57.4,42.3,30.06,SW,222,1.0,6.0,57,0.00,,,0.00,meteohub,2013-04-09 06:32:00,
2013-04-08 23:42:00,57.9,41.4,30.06,WSW,245,2.0,6.0,54,0.00,,,0.00,meteohub,2013-04-09 06:42:00,
2013-04-08 23:47:00,57.6,42.4,30.06,SSE,152,2.0,6.0,57,0.00,,,0.00,meteohub,2013-04-09 06:47:00,
2013-04-08 23:52:00,57.0,41.5,30.06,NW,308,0.0,4.0,56,0.00,,,0.00,meteohub,2013-04-09 06:52:00,
2013-04-08 23:57:00,56.8,41.4,30.07,SSW,199,1.0,3.0,56,0.00,,,0.00,meteohub,2013-04-09 06:57:00,